KHON/HON METAR and TAF weather

Enter ICAO airport designator
Station Type Date Time Source
KHON METAR 2019/02/21 15:55 UTC NOAA

KHON 211555Z AUTO 32003KT 10SM CLR M17/M20 A3016 RMK AO2 SLP249 T11721200


Station Type Date Time Source
KHON Decoded METAR 2019/02/21 15:55 UTC NOAA

HURON REGIONAL AIRPORT, SD, United States (KHON) 44-23N 098-14W 390M
Feb 21, 2019 - 10:55 AM EST / 2019.02.21 1555 UTC
Wind: from the NW (320 degrees) at 3 MPH (3 KT):0
Visibility: 10 mile(s):0
Sky conditions: clear
Temperature: 1.0 F (-17.2 C)
Dew Point: -4.0 F (-20.0 C)
Relative Humidity: 78%
Pressure (altimeter): 30.16 in. Hg (1021 hPa)
ob: KHON 211555Z AUTO 32003KT 10SM CLR M17/M20 A3016 RMK AO2 SLP249 T11721200
cycle: 16

Station Type Date Time Source
KHON TAF 2019/02/21 12:42 UTC NOAA

TAF KHON 211141Z 2112/2212 29007KT P6SM FEW250
FM220200 00000KT P6SM OVC060
FM220300 00000KT P6SM VCSH OVC050
FM220500 VRB03KT 3SM -SN OVC015
FM221100 VRB04KT 6SM -SN OVC025


Example: see airport list